sensor_id;sensor_type;location;lat;lon;timestamp;P1;durP1;ratioP1;P2;durP2;ratioP2
16320;SDS011;8269;50.990;4.494;2023-07-02T00:00:59;33.72;;;18.95;;
16320;SDS011;8269;50.990;4.494;2023-07-02T00:03:24;32.67;;;18.65;;
16320;SDS011;8269;50.990;4.494;2023-07-02T00:05:50;35.97;;;19.08;;
16320;SDS011;8269;50.990;4.494;2023-07-02T00:08:19;33.38;;;18.95;;
16320;SDS011;8269;50.990;4.494;2023-07-02T00:10:45;31.98;;;17.55;;
16320;SDS011;8269;50.990;4.494;2023-07-02T00:13:11;32.72;;;18.83;;
16320;SDS011;8269;50.990;4.494;2023-07-02T00:15:39;30.45;;;17.77;;
16320;SDS011;8269;50.990;4.494;2023-07-02T00:18:05;28.10;;;17.15;;
16320;SDS011;8269;50.990;4.494;2023-07-02T00:20:32;33.15;;;18.30;;
16320;SDS011;8269;50.990;4.494;2023-07-02T00:23:05;30.80;;;17.95;;
16320;SDS011;8269;50.990;4.494;2023-07-02T00:25:33;28.08;;;16.60;;
16320;SDS011;8269;50.990;4.494;2023-07-02T00:28:00;33.70;;;18.02;;
16320;SDS011;8269;50.990;4.494;2023-07-02T00:30:25;33.20;;;17.67;;
16320;SDS011;8269;50.990;4.494;2023-07-02T00:32:51;28.73;;;16.40;;
16320;SDS011;8269;50.990;4.494;2023-07-02T00:35:17;31.58;;;16.55;;
16320;SDS011;8269;50.990;4.494;2023-07-02T00:37:42;29.75;;;17.30;;
16320;SDS011;8269;50.990;4.494;2023-07-02T00:40:08;30.23;;;16.38;;
16320;SDS011;8269;50.990;4.494;2023-07-02T00:42:34;28.67;;;16.90;;
16320;SDS011;8269;50.990;4.494;2023-07-02T00:45:00;29.10;;;16.75;;
16320;SDS011;8269;50.990;4.494;2023-07-02T00:47:32;26.95;;;17.05;;
16320;SDS011;8269;50.990;4.494;2023-07-02T00:49:59;33.63;;;17.02;;
16320;SDS011;8269;50.990;4.494;2023-07-02T00:52:26;32.97;;;18.05;;
16320;SDS011;8269;50.990;4.494;2023-07-02T00:54:52;28.45;;;17.30;;
16320;SDS011;8269;50.990;4.494;2023-07-02T00:57:18;28.60;;;16.77;;
16320;SDS011;8269;50.990;4.494;2023-07-02T00:59:44;32.00;;;17.73;;
16320;SDS011;8269;50.990;4.494;2023-07-02T01:02:10;31.13;;;17.55;;
16320;SDS011;8269;50.990;4.494;2023-07-02T01:04:37;31.73;;;18.08;;
16320;SDS011;8269;50.990;4.494;2023-07-02T01:07:03;30.92;;;18.15;;
16320;SDS011;8269;50.990;4.494;2023-07-02T01:09:36;28.27;;;17.85;;
16320;SDS011;8269;50.990;4.494;2023-07-02T01:12:03;28.13;;;18.20;;
16320;SDS011;8269;50.990;4.494;2023-07-02T01:17:00;31.38;;;18.33;;
16320;SDS011;8269;50.990;4.494;2023-07-02T01:19:50;30.23;;;17.80;;
16320;SDS011;8269;50.990;4.494;2023-07-02T01:22:19;28.30;;;16.85;;
16320;SDS011;8269;50.990;4.494;2023-07-02T01:24:50;30.83;;;17.63;;
16320;SDS011;8269;50.990;4.494;2023-07-02T01:27:17;30.00;;;18.38;;
16320;SDS011;8269;50.990;4.494;2023-07-02T01:29:43;30.77;;;18.42;;
16320;SDS011;8269;50.990;4.494;2023-07-02T01:32:12;32.40;;;17.60;;
16320;SDS011;8269;50.990;4.494;2023-07-02T01:34:38;32.10;;;17.92;;
16320;SDS011;8269;50.990;4.494;2023-07-02T01:37:04;31.77;;;19.23;;
16320;SDS011;8269;50.990;4.494;2023-07-02T01:39:30;32.95;;;17.90;;
16320;SDS011;8269;50.990;4.494;2023-07-02T01:42:15;33.22;;;19.55;;
16320;SDS011;8269;50.990;4.494;2023-07-02T01:44:45;30.58;;;18.30;;
16320;SDS011;8269;50.990;4.494;2023-07-02T01:47:12;34.03;;;19.17;;
16320;SDS011;8269;50.990;4.494;2023-07-02T01:49:41;30.20;;;17.52;;
16320;SDS011;8269;50.990;4.494;2023-07-02T01:52:06;37.20;;;19.10;;
16320;SDS011;8269;50.990;4.494;2023-07-02T01:54:32;31.35;;;17.63;;
16320;SDS011;8269;50.990;4.494;2023-07-02T01:57:00;34.83;;;19.98;;
16320;SDS011;8269;50.990;4.494;2023-07-02T01:59:25;36.88;;;20.02;;
16320;SDS011;8269;50.990;4.494;2023-07-02T02:01:51;31.38;;;18.55;;
16320;SDS011;8269;50.990;4.494;2023-07-02T02:04:17;33.55;;;19.65;;
16320;SDS011;8269;50.990;4.494;2023-07-02T02:06:44;38.08;;;18.88;;
16320;SDS011;8269;50.990;4.494;2023-07-02T02:09:09;33.13;;;19.02;;
16320;SDS011;8269;50.990;4.494;2023-07-02T02:11:39;36.70;;;19.70;;
16320;SDS011;8269;50.990;4.494;2023-07-02T02:14:10;34.30;;;19.95;;
16320;SDS011;8269;50.990;4.494;2023-07-02T02:16:35;37.58;;;19.85;;
16320;SDS011;8269;50.990;4.494;2023-07-02T02:19:01;34.97;;;19.70;;
16320;SDS011;8269;50.990;4.494;2023-07-02T02:21:28;37.42;;;20.42;;
16320;SDS011;8269;50.990;4.494;2023-07-02T02:23:54;35.65;;;20.70;;
16320;SDS011;8269;50.990;4.494;2023-07-02T02:26:20;35.03;;;21.10;;
16320;SDS011;8269;50.990;4.494;2023-07-02T02:28:46;32.58;;;19.58;;
16320;SDS011;8269;50.990;4.494;2023-07-02T02:31:13;36.88;;;20.45;;
16320;SDS011;8269;50.990;4.494;2023-07-02T02:33:39;33.20;;;20.02;;
16320;SDS011;8269;50.990;4.494;2023-07-02T02:36:05;36.17;;;20.27;;
16320;SDS011;8269;50.990;4.494;2023-07-02T02:38:31;35.55;;;20.13;;
16320;SDS011;8269;50.990;4.494;2023-07-02T02:40:59;35.60;;;20.65;;
16320;SDS011;8269;50.990;4.494;2023-07-02T02:43:25;38.33;;;19.92;;
16320;SDS011;8269;50.990;4.494;2023-07-02T02:45:51;33.40;;;20.50;;
16320;SDS011;8269;50.990;4.494;2023-07-02T02:48:18;37.72;;;20.65;;
16320;SDS011;8269;50.990;4.494;2023-07-02T02:50:44;37.03;;;20.10;;
16320;SDS011;8269;50.990;4.494;2023-07-02T02:53:10;43.05;;;21.33;;
16320;SDS011;8269;50.990;4.494;2023-07-02T02:55:36;36.70;;;20.40;;
16320;SDS011;8269;50.990;4.494;2023-07-02T02:58:02;41.05;;;21.13;;
16320;SDS011;8269;50.990;4.494;2023-07-02T03:00:28;36.97;;;21.45;;
16320;SDS011;8269;50.990;4.494;2023-07-02T03:02:54;37.28;;;20.17;;
16320;SDS011;8269;50.990;4.494;2023-07-02T03:05:20;43.83;;;22.45;;
16320;SDS011;8269;50.990;4.494;2023-07-02T03:07:46;35.38;;;20.95;;
16320;SDS011;8269;50.990;4.494;2023-07-02T03:10:12;36.80;;;22.45;;
16320;SDS011;8269;50.990;4.494;2023-07-02T03:12:38;37.88;;;20.67;;
16320;SDS011;8269;50.990;4.494;2023-07-02T03:15:03;37.25;;;21.33;;
16320;SDS011;8269;50.990;4.494;2023-07-02T03:17:29;43.88;;;22.25;;
16320;SDS011;8269;50.990;4.494;2023-07-02T03:19:55;44.15;;;22.42;;
16320;SDS011;8269;50.990;4.494;2023-07-02T03:22:21;40.97;;;22.38;;
16320;SDS011;8269;50.990;4.494;2023-07-02T03:24:46;39.28;;;20.80;;
16320;SDS011;8269;50.990;4.494;2023-07-02T03:27:12;43.28;;;22.33;;
16320;SDS011;8269;50.990;4.494;2023-07-02T03:29:37;40.33;;;22.52;;
16320;SDS011;8269;50.990;4.494;2023-07-02T03:32:04;41.42;;;23.10;;
16320;SDS011;8269;50.990;4.494;2023-07-02T03:34:30;42.28;;;22.38;;
16320;SDS011;8269;50.990;4.494;2023-07-02T03:36:56;41.92;;;22.17;;
16320;SDS011;8269;50.990;4.494;2023-07-02T03:39:22;40.67;;;22.52;;
16320;SDS011;8269;50.990;4.494;2023-07-02T03:41:47;39.17;;;22.95;;
16320;SDS011;8269;50.990;4.494;2023-07-02T03:44:13;44.47;;;23.17;;
16320;SDS011;8269;50.990;4.494;2023-07-02T03:46:39;39.88;;;22.67;;
16320;SDS011;8269;50.990;4.494;2023-07-02T03:49:04;41.25;;;22.88;;
16320;SDS011;8269;50.990;4.494;2023-07-02T03:51:30;43.00;;;22.90;;
16320;SDS011;8269;50.990;4.494;2023-07-02T03:53:59;38.42;;;23.13;;
16320;SDS011;8269;50.990;4.494;2023-07-02T03:56:25;39.70;;;21.38;;
16320;SDS011;8269;50.990;4.494;2023-07-02T03:58:51;39.08;;;21.70;;
16320;SDS011;8269;50.990;4.494;2023-07-02T04:01:17;41.90;;;22.50;;
16320;SDS011;8269;50.990;4.494;2023-07-02T04:03:49;42.42;;;23.17;;
16320;SDS011;8269;50.990;4.494;2023-07-02T04:06:16;43.72;;;23.02;;
16320;SDS011;8269;50.990;4.494;2023-07-02T04:08:42;42.40;;;23.60;;
16320;SDS011;8269;50.990;4.494;2023-07-02T04:11:09;42.50;;;22.77;;
16320;SDS011;8269;50.990;4.494;2023-07-02T04:13:34;39.72;;;21.70;;
16320;SDS011;8269;50.990;4.494;2023-07-02T04:16:00;39.20;;;23.02;;
16320;SDS011;8269;50.990;4.494;2023-07-02T04:18:25;39.20;;;23.27;;
16320;SDS011;8269;50.990;4.494;2023-07-02T04:20:51;46.83;;;24.23;;
16320;SDS011;8269;50.990;4.494;2023-07-02T04:23:17;41.20;;;23.38;;
16320;SDS011;8269;50.990;4.494;2023-07-02T04:25:43;42.72;;;23.55;;
16320;SDS011;8269;50.990;4.494;2023-07-02T04:28:08;40.17;;;21.85;;
16320;SDS011;8269;50.990;4.494;2023-07-02T04:30:34;48.70;;;23.60;;
16320;SDS011;8269;50.990;4.494;2023-07-02T04:33:00;41.58;;;24.35;;
16320;SDS011;8269;50.990;4.494;2023-07-02T04:35:25;42.75;;;22.98;;
16320;SDS011;8269;50.990;4.494;2023-07-02T04:37:51;50.72;;;24.13;;
16320;SDS011;8269;50.990;4.494;2023-07-02T04:40:16;43.33;;;23.70;;
16320;SDS011;8269;50.990;4.494;2023-07-02T04:42:42;47.03;;;24.23;;
16320;SDS011;8269;50.990;4.494;2023-07-02T04:45:12;46.10;;;24.02;;
16320;SDS011;8269;50.990;4.494;2023-07-02T04:47:40;42.67;;;23.63;;
16320;SDS011;8269;50.990;4.494;2023-07-02T04:50:09;48.80;;;24.75;;
16320;SDS011;8269;50.990;4.494;2023-07-02T04:52:35;44.95;;;24.27;;
16320;SDS011;8269;50.990;4.494;2023-07-02T04:55:02;48.53;;;24.23;;
16320;SDS011;8269;50.990;4.494;2023-07-02T04:57:28;44.97;;;24.45;;
16320;SDS011;8269;50.990;4.494;2023-07-02T04:59:53;45.75;;;25.13;;
16320;SDS011;8269;50.990;4.494;2023-07-02T05:02:19;42.22;;;22.83;;
16320;SDS011;8269;50.990;4.494;2023-07-02T05:04:45;43.35;;;23.80;;
16320;SDS011;8269;50.990;4.494;2023-07-02T05:07:10;45.58;;;25.92;;
16320;SDS011;8269;50.990;4.494;2023-07-02T05:09:36;46.28;;;24.23;;
16320;SDS011;8269;50.990;4.494;2023-07-02T05:12:02;50.58;;;25.33;;
16320;SDS011;8269;50.990;4.494;2023-07-02T05:14:27;47.45;;;25.73;;
16320;SDS011;8269;50.990;4.494;2023-07-02T05:16:53;45.95;;;25.25;;
16320;SDS011;8269;50.990;4.494;2023-07-02T05:19:19;46.30;;;25.45;;
16320;SDS011;8269;50.990;4.494;2023-07-02T05:21:44;42.72;;;24.58;;
16320;SDS011;8269;50.990;4.494;2023-07-02T05:24:10;49.35;;;24.45;;
16320;SDS011;8269;50.990;4.494;2023-07-02T05:26:35;46.70;;;24.52;;
16320;SDS011;8269;50.990;4.494;2023-07-02T05:29:01;47.22;;;25.90;;
16320;SDS011;8269;50.990;4.494;2023-07-02T05:31:27;42.55;;;24.67;;
16320;SDS011;8269;50.990;4.494;2023-07-02T05:33:53;47.55;;;27.05;;
16320;SDS011;8269;50.990;4.494;2023-07-02T05:36:19;43.40;;;25.27;;
16320;SDS011;8269;50.990;4.494;2023-07-02T05:38:45;44.72;;;24.05;;
16320;SDS011;8269;50.990;4.494;2023-07-02T05:41:17;48.17;;;25.48;;
16320;SDS011;8269;50.990;4.494;2023-07-02T05:43:43;46.60;;;25.33;;
16320;SDS011;8269;50.990;4.494;2023-07-02T05:46:09;44.88;;;24.50;;
16320;SDS011;8269;50.990;4.494;2023-07-02T05:48:34;47.88;;;24.52;;
16320;SDS011;8269;50.990;4.494;2023-07-02T05:51:00;45.42;;;25.48;;
16320;SDS011;8269;50.990;4.494;2023-07-02T05:53:26;45.17;;;24.92;;
16320;SDS011;8269;50.990;4.494;2023-07-02T05:55:51;42.03;;;24.70;;
16320;SDS011;8269;50.990;4.494;2023-07-02T05:58:17;46.38;;;25.58;;
16320;SDS011;8269;50.990;4.494;2023-07-02T06:00:42;44.38;;;24.10;;
16320;SDS011;8269;50.990;4.494;2023-07-02T06:03:13;47.92;;;25.63;;
16320;SDS011;8269;50.990;4.494;2023-07-02T06:05:44;42.63;;;24.90;;
16320;SDS011;8269;50.990;4.494;2023-07-02T06:08:13;45.10;;;25.60;;
16320;SDS011;8269;50.990;4.494;2023-07-02T06:10:39;45.90;;;27.08;;
16320;SDS011;8269;50.990;4.494;2023-07-02T06:13:05;45.75;;;25.15;;
16320;SDS011;8269;50.990;4.494;2023-07-02T06:15:31;46.17;;;24.92;;
16320;SDS011;8269;50.990;4.494;2023-07-02T06:17:57;47.38;;;26.15;;
16320;SDS011;8269;50.990;4.494;2023-07-02T06:20:22;50.97;;;27.13;;
16320;SDS011;8269;50.990;4.494;2023-07-02T06:22:48;41.70;;;24.27;;
16320;SDS011;8269;50.990;4.494;2023-07-02T06:25:13;48.88;;;25.10;;
16320;SDS011;8269;50.990;4.494;2023-07-02T06:27:39;47.33;;;25.58;;
16320;SDS011;8269;50.990;4.494;2023-07-02T06:30:05;43.80;;;25.15;;
16320;SDS011;8269;50.990;4.494;2023-07-02T06:32:31;44.55;;;24.88;;
16320;SDS011;8269;50.990;4.494;2023-07-02T06:34:57;46.42;;;25.90;;
16320;SDS011;8269;50.990;4.494;2023-07-02T06:37:23;41.28;;;23.15;;
16320;SDS011;8269;50.990;4.494;2023-07-02T06:39:48;44.13;;;24.70;;
16320;SDS011;8269;50.990;4.494;2023-07-02T06:42:14;40.03;;;23.25;;
16320;SDS011;8269;50.990;4.494;2023-07-02T06:44:40;37.80;;;21.25;;
16320;SDS011;8269;50.990;4.494;2023-07-02T06:47:06;39.97;;;19.27;;
16320;SDS011;8269;50.990;4.494;2023-07-02T06:49:32;37.15;;;18.27;;
16320;SDS011;8269;50.990;4.494;2023-07-02T06:51:57;39.67;;;19.20;;
16320;SDS011;8269;50.990;4.494;2023-07-02T06:54:25;33.15;;;17.67;;
16320;SDS011;8269;50.990;4.494;2023-07-02T06:56:51;31.88;;;17.67;;
16320;SDS011;8269;50.990;4.494;2023-07-02T06:59:20;30.42;;;16.35;;
16320;SDS011;8269;50.990;4.494;2023-07-02T07:01:46;27.20;;;15.55;;
16320;SDS011;8269;50.990;4.494;2023-07-02T07:04:12;25.05;;;15.48;;
16320;SDS011;8269;50.990;4.494;2023-07-02T07:06:37;36.35;;;18.90;;
16320;SDS011;8269;50.990;4.494;2023-07-02T07:09:03;24.85;;;14.32;;
16320;SDS011;8269;50.990;4.494;2023-07-02T07:11:29;29.27;;;14.93;;
16320;SDS011;8269;50.990;4.494;2023-07-02T07:13:55;26.02;;;13.48;;
16320;SDS011;8269;50.990;4.494;2023-07-02T07:16:20;24.60;;;13.90;;
16320;SDS011;8269;50.990;4.494;2023-07-02T07:18:47;20.88;;;11.77;;
16320;SDS011;8269;50.990;4.494;2023-07-02T07:21:12;25.40;;;12.32;;
16320;SDS011;8269;50.990;4.494;2023-07-02T07:23:39;26.05;;;12.15;;
16320;SDS011;8269;50.990;4.494;2023-07-02T07:26:05;23.48;;;12.63;;
16320;SDS011;8269;50.990;4.494;2023-07-02T07:28:31;22.98;;;11.57;;
16320;SDS011;8269;50.990;4.494;2023-07-02T07:30:56;21.02;;;11.45;;
16320;SDS011;8269;50.990;4.494;2023-07-02T07:33:22;22.13;;;11.63;;
16320;SDS011;8269;50.990;4.494;2023-07-02T07:35:48;19.98;;;9.85;;
16320;SDS011;8269;50.990;4.494;2023-07-02T07:38:14;18.90;;;9.70;;
16320;SDS011;8269;50.990;4.494;2023-07-02T07:40:40;15.80;;;9.05;;
16320;SDS011;8269;50.990;4.494;2023-07-02T07:43:05;17.83;;;8.98;;
16320;SDS011;8269;50.990;4.494;2023-07-02T07:45:32;18.52;;;8.50;;
16320;SDS011;8269;50.990;4.494;2023-07-02T07:47:58;16.70;;;7.95;;
16320;SDS011;8269;50.990;4.494;2023-07-02T07:50:24;16.20;;;7.70;;
16320;SDS011;8269;50.990;4.494;2023-07-02T07:52:49;16.77;;;8.18;;
16320;SDS011;8269;50.990;4.494;2023-07-02T07:55:16;17.13;;;7.13;;
16320;SDS011;8269;50.990;4.494;2023-07-02T07:57:42;14.45;;;7.13;;
16320;SDS011;8269;50.990;4.494;2023-07-02T08:00:08;15.48;;;7.78;;
16320;SDS011;8269;50.990;4.494;2023-07-02T08:02:37;20.55;;;7.90;;
16320;SDS011;8269;50.990;4.494;2023-07-02T08:05:02;14.95;;;6.90;;
16320;SDS011;8269;50.990;4.494;2023-07-02T08:07:30;15.75;;;7.25;;
16320;SDS011;8269;50.990;4.494;2023-07-02T08:09:56;15.07;;;6.93;;
16320;SDS011;8269;50.990;4.494;2023-07-02T08:12:22;13.60;;;6.95;;
16320;SDS011;8269;50.990;4.494;2023-07-02T08:14:48;15.30;;;6.35;;
16320;SDS011;8269;50.990;4.494;2023-07-02T08:17:14;16.00;;;7.35;;
16320;SDS011;8269;50.990;4.494;2023-07-02T08:19:40;13.98;;;7.47;;
16320;SDS011;8269;50.990;4.494;2023-07-02T08:22:05;13.57;;;7.07;;
16320;SDS011;8269;50.990;4.494;2023-07-02T08:24:31;12.40;;;6.65;;
16320;SDS011;8269;50.990;4.494;2023-07-02T08:26:57;12.80;;;5.82;;
16320;SDS011;8269;50.990;4.494;2023-07-02T08:29:23;16.58;;;6.85;;
16320;SDS011;8269;50.990;4.494;2023-07-02T08:31:49;10.70;;;6.25;;
16320;SDS011;8269;50.990;4.494;2023-07-02T08:34:15;13.30;;;6.57;;
16320;SDS011;8269;50.990;4.494;2023-07-02T08:36:40;12.85;;;6.28;;
16320;SDS011;8269;50.990;4.494;2023-07-02T08:39:08;14.40;;;7.05;;
16320;SDS011;8269;50.990;4.494;2023-07-02T08:41:43;13.32;;;6.63;;
16320;SDS011;8269;50.990;4.494;2023-07-02T08:44:11;13.85;;;6.60;;
16320;SDS011;8269;50.990;4.494;2023-07-02T08:46:38;13.18;;;6.65;;
16320;SDS011;8269;50.990;4.494;2023-07-02T08:49:06;11.88;;;6.60;;
16320;SDS011;8269;50.990;4.494;2023-07-02T08:51:32;14.50;;;7.68;;
16320;SDS011;8269;50.990;4.494;2023-07-02T08:53:58;13.73;;;7.82;;
16320;SDS011;8269;50.990;4.494;2023-07-02T08:56:24;14.52;;;7.60;;
16320;SDS011;8269;50.990;4.494;2023-07-02T08:58:51;17.23;;;8.43;;
16320;SDS011;8269;50.990;4.494;2023-07-02T09:01:18;14.98;;;8.88;;
16320;SDS011;8269;50.990;4.494;2023-07-02T09:03:44;16.55;;;9.07;;
16320;SDS011;8269;50.990;4.494;2023-07-02T09:06:10;15.10;;;8.77;;
16320;SDS011;8269;50.990;4.494;2023-07-02T09:08:37;16.65;;;9.77;;
16320;SDS011;8269;50.990;4.494;2023-07-02T09:11:09;15.65;;;8.60;;
16320;SDS011;8269;50.990;4.494;2023-07-02T09:13:53;15.73;;;9.80;;
16320;SDS011;8269;50.990;4.494;2023-07-02T09:16:28;18.27;;;9.70;;
16320;SDS011;8269;50.990;4.494;2023-07-02T09:18:58;17.95;;;10.40;;
16320;SDS011;8269;50.990;4.494;2023-07-02T09:21:27;17.48;;;10.52;;
16320;SDS011;8269;50.990;4.494;2023-07-02T09:23:54;22.77;;;10.70;;
16320;SDS011;8269;50.990;4.494;2023-07-02T09:26:23;20.23;;;10.95;;
16320;SDS011;8269;50.990;4.494;2023-07-02T09:28:49;18.98;;;10.43;;
16320;SDS011;8269;50.990;4.494;2023-07-02T09:31:15;19.55;;;11.05;;
16320;SDS011;8269;50.990;4.494;2023-07-02T09:33:42;21.73;;;11.55;;
16320;SDS011;8269;50.990;4.494;2023-07-02T09:36:08;20.45;;;10.38;;
16320;SDS011;8269;50.990;4.494;2023-07-02T09:38:34;19.98;;;10.82;;
16320;SDS011;8269;50.990;4.494;2023-07-02T09:41:00;19.13;;;10.88;;
16320;SDS011;8269;50.990;4.494;2023-07-02T09:43:26;17.70;;;11.25;;
16320;SDS011;8269;50.990;4.494;2023-07-02T09:45:54;16.67;;;10.02;;
16320;SDS011;8269;50.990;4.494;2023-07-02T09:48:23;20.50;;;11.15;;
16320;SDS011;8269;50.990;4.494;2023-07-02T09:50:50;21.20;;;11.05;;
16320;SDS011;8269;50.990;4.494;2023-07-02T09:53:16;17.80;;;10.18;;
16320;SDS011;8269;50.990;4.494;2023-07-02T09:55:43;19.77;;;13.77;;
16320;SDS011;8269;50.990;4.494;2023-07-02T09:58:09;18.92;;;10.70;;
16320;SDS011;8269;50.990;4.494;2023-07-02T10:00:37;24.30;;;11.32;;
16320;SDS011;8269;50.990;4.494;2023-07-02T10:03:03;21.95;;;11.32;;
16320;SDS011;8269;50.990;4.494;2023-07-02T10:05:30;24.08;;;11.40;;
16320;SDS011;8269;50.990;4.494;2023-07-02T10:07:57;21.15;;;10.52;;
16320;SDS011;8269;50.990;4.494;2023-07-02T10:10:29;22.08;;;11.43;;
16320;SDS011;8269;50.990;4.494;2023-07-02T10:12:56;18.50;;;10.57;;
16320;SDS011;8269;50.990;4.494;2023-07-02T10:15:26;23.33;;;11.93;;
16320;SDS011;8269;50.990;4.494;2023-07-02T10:17:56;20.40;;;11.65;;
16320;SDS011;8269;50.990;4.494;2023-07-02T10:22:58;18.70;;;11.38;;
16320;SDS011;8269;50.990;4.494;2023-07-02T10:25:30;20.30;;;10.82;;
16320;SDS011;8269;50.990;4.494;2023-07-02T10:27:57;23.48;;;12.40;;
16320;SDS011;8269;50.990;4.494;2023-07-02T10:30:58;20.35;;;11.38;;
16320;SDS011;8269;50.990;4.494;2023-07-02T10:33:18;19.52;;;10.95;;
16320;SDS011;8269;50.990;4.494;2023-07-02T10:35:45;18.40;;;10.35;;
16320;SDS011;8269;50.990;4.494;2023-07-02T10:38:18;23.02;;;11.45;;
16320;SDS011;8269;50.990;4.494;2023-07-02T10:40:45;19.98;;;11.15;;
16320;SDS011;8269;50.990;4.494;2023-07-02T10:43:11;19.17;;;10.30;;
16320;SDS011;8269;50.990;4.494;2023-07-02T10:45:37;19.42;;;11.32;;
16320;SDS011;8269;50.990;4.494;2023-07-02T10:48:03;21.75;;;12.20;;
16320;SDS011;8269;50.990;4.494;2023-07-02T10:50:30;23.42;;;12.18;;
16320;SDS011;8269;50.990;4.494;2023-07-02T10:52:57;23.27;;;12.05;;
16320;SDS011;8269;50.990;4.494;2023-07-02T10:55:23;20.35;;;10.95;;
16320;SDS011;8269;50.990;4.494;2023-07-02T10:57:50;20.52;;;11.65;;
16320;SDS011;8269;50.990;4.494;2023-07-02T11:00:17;24.05;;;11.70;;
16320;SDS011;8269;50.990;4.494;2023-07-02T11:02:43;20.67;;;10.52;;
16320;SDS011;8269;50.990;4.494;2023-07-02T11:05:09;21.60;;;11.18;;
16320;SDS011;8269;50.990;4.494;2023-07-02T11:07:40;17.65;;;10.98;;
16320;SDS011;8269;50.990;4.494;2023-07-02T11:10:07;18.95;;;10.93;;
16320;SDS011;8269;50.990;4.494;2023-07-02T11:12:34;22.00;;;11.32;;
16320;SDS011;8269;50.990;4.494;2023-07-02T11:15:07;19.55;;;11.77;;
16320;SDS011;8269;50.990;4.494;2023-07-02T11:17:33;19.15;;;10.65;;
16320;SDS011;8269;50.990;4.494;2023-07-02T11:19:59;17.42;;;10.13;;
16320;SDS011;8269;50.990;4.494;2023-07-02T11:22:35;21.23;;;10.32;;
16320;SDS011;8269;50.990;4.494;2023-07-02T11:25:17;16.02;;;10.25;;
16320;SDS011;8269;50.990;4.494;2023-07-02T11:27:45;19.80;;;10.00;;
16320;SDS011;8269;50.990;4.494;2023-07-02T11:30:11;18.90;;;10.02;;
16320;SDS011;8269;50.990;4.494;2023-07-02T11:32:47;19.85;;;9.93;;
16320;SDS011;8269;50.990;4.494;2023-07-02T11:35:14;18.80;;;10.52;;
16320;SDS011;8269;50.990;4.494;2023-07-02T11:37:41;25.30;;;11.80;;
16320;SDS011;8269;50.990;4.494;2023-07-02T11:40:07;19.75;;;10.60;;
16320;SDS011;8269;50.990;4.494;2023-07-02T11:42:33;24.13;;;10.85;;
16320;SDS011;8269;50.990;4.494;2023-07-02T11:44:59;21.52;;;11.45;;
16320;SDS011;8269;50.990;4.494;2023-07-02T11:47:25;15.73;;;9.70;;
16320;SDS011;8269;50.990;4.494;2023-07-02T11:49:52;20.00;;;10.27;;
16320;SDS011;8269;50.990;4.494;2023-07-02T11:52:20;19.40;;;10.20;;
16320;SDS011;8269;50.990;4.494;2023-07-02T11:54:46;19.63;;;11.43;;
16320;SDS011;8269;50.990;4.494;2023-07-02T11:57:12;17.30;;;9.73;;
16320;SDS011;8269;50.990;4.494;2023-07-02T11:59:38;18.23;;;10.27;;
16320;SDS011;8269;50.990;4.494;2023-07-02T12:02:04;16.40;;;9.70;;
16320;SDS011;8269;50.990;4.494;2023-07-02T12:04:31;16.75;;;8.90;;
16320;SDS011;8269;50.990;4.494;2023-07-02T12:06:57;16.75;;;10.05;;
16320;SDS011;8269;50.990;4.494;2023-07-02T12:09:23;16.75;;;9.68;;
16320;SDS011;8269;50.990;4.494;2023-07-02T12:11:49;18.33;;;10.63;;
16320;SDS011;8269;50.990;4.494;2023-07-02T12:14:15;18.40;;;9.95;;
16320;SDS011;8269;50.990;4.494;2023-07-02T12:16:41;19.20;;;9.60;;
16320;SDS011;8269;50.990;4.494;2023-07-02T12:19:07;20.05;;;11.35;;
16320;SDS011;8269;50.990;4.494;2023-07-02T12:21:33;14.30;;;9.52;;
16320;SDS011;8269;50.990;4.494;2023-07-02T12:23:59;18.00;;;9.30;;
16320;SDS011;8269;50.990;4.494;2023-07-02T12:26:25;16.95;;;9.50;;
16320;SDS011;8269;50.990;4.494;2023-07-02T12:28:53;18.15;;;9.25;;
16320;SDS011;8269;50.990;4.494;2023-07-02T12:31:19;17.60;;;9.35;;
16320;SDS011;8269;50.990;4.494;2023-07-02T12:33:46;18.50;;;9.80;;
16320;SDS011;8269;50.990;4.494;2023-07-02T12:36:12;16.83;;;9.15;;
16320;SDS011;8269;50.990;4.494;2023-07-02T12:38:39;15.40;;;8.73;;
16320;SDS011;8269;50.990;4.494;2023-07-02T12:41:05;15.20;;;9.15;;
16320;SDS011;8269;50.990;4.494;2023-07-02T12:43:31;17.45;;;9.25;;
16320;SDS011;8269;50.990;4.494;2023-07-02T12:45:57;14.48;;;9.10;;
16320;SDS011;8269;50.990;4.494;2023-07-02T12:48:23;16.60;;;9.07;;
16320;SDS011;8269;50.990;4.494;2023-07-02T12:50:55;16.50;;;9.20;;
16320;SDS011;8269;50.990;4.494;2023-07-02T12:53:22;17.70;;;9.07;;
16320;SDS011;8269;50.990;4.494;2023-07-02T12:55:48;19.05;;;9.27;;
16320;SDS011;8269;50.990;4.494;2023-07-02T12:58:14;18.00;;;9.32;;
16320;SDS011;8269;50.990;4.494;2023-07-02T13:00:40;15.60;;;8.98;;
16320;SDS011;8269;50.990;4.494;2023-07-02T13:03:09;19.60;;;9.40;;
16320;SDS011;8269;50.990;4.494;2023-07-02T13:05:36;13.77;;;8.80;;
16320;SDS011;8269;50.990;4.494;2023-07-02T13:08:02;20.15;;;8.82;;
16320;SDS011;8269;50.990;4.494;2023-07-02T13:10:31;16.77;;;8.93;;
16320;SDS011;8269;50.990;4.494;2023-07-02T13:12:58;16.70;;;8.60;;
16320;SDS011;8269;50.990;4.494;2023-07-02T13:15:24;14.88;;;7.53;;
16320;SDS011;8269;50.990;4.494;2023-07-02T13:17:50;17.25;;;8.68;;
16320;SDS011;8269;50.990;4.494;2023-07-02T13:20:16;14.70;;;8.82;;
16320;SDS011;8269;50.990;4.494;2023-07-02T13:22:42;17.45;;;8.93;;
16320;SDS011;8269;50.990;4.494;2023-07-02T13:25:08;16.27;;;8.70;;
16320;SDS011;8269;50.990;4.494;2023-07-02T13:27:34;16.73;;;8.38;;
16320;SDS011;8269;50.990;4.494;2023-07-02T13:30:01;16.95;;;8.75;;
16320;SDS011;8269;50.990;4.494;2023-07-02T13:32:27;16.40;;;8.27;;
16320;SDS011;8269;50.990;4.494;2023-07-02T13:34:53;16.77;;;8.35;;
16320;SDS011;8269;50.990;4.494;2023-07-02T13:37:19;15.82;;;8.48;;
16320;SDS011;8269;50.990;4.494;2023-07-02T13:39:45;17.50;;;8.55;;
16320;SDS011;8269;50.990;4.494;2023-07-02T13:42:12;17.08;;;8.82;;
16320;SDS011;8269;50.990;4.494;2023-07-02T13:44:38;16.58;;;8.18;;
16320;SDS011;8269;50.990;4.494;2023-07-02T13:47:04;16.30;;;8.73;;
16320;SDS011;8269;50.990;4.494;2023-07-02T13:49:31;17.15;;;9.18;;
16320;SDS011;8269;50.990;4.494;2023-07-02T13:51:57;14.50;;;8.55;;
16320;SDS011;8269;50.990;4.494;2023-07-02T13:54:23;16.25;;;8.88;;
16320;SDS011;8269;50.990;4.494;2023-07-02T13:56:50;17.20;;;8.52;;
16320;SDS011;8269;50.990;4.494;2023-07-02T13:59:16;14.70;;;8.18;;
16320;SDS011;8269;50.990;4.494;2023-07-02T14:01:43;18.88;;;9.05;;
16320;SDS011;8269;50.990;4.494;2023-07-02T14:04:09;15.38;;;8.18;;
16320;SDS011;8269;50.990;4.494;2023-07-02T14:06:36;16.50;;;8.52;;
16320;SDS011;8269;50.990;4.494;2023-07-02T14:09:02;15.52;;;9.00;;
16320;SDS011;8269;50.990;4.494;2023-07-02T14:11:28;16.20;;;9.07;;
16320;SDS011;8269;50.990;4.494;2023-07-02T14:13:55;17.73;;;8.82;;
16320;SDS011;8269;50.990;4.494;2023-07-02T14:16:21;16.77;;;8.52;;
16320;SDS011;8269;50.990;4.494;2023-07-02T14:18:48;17.13;;;8.63;;
16320;SDS011;8269;50.990;4.494;2023-07-02T14:21:14;16.67;;;8.70;;
16320;SDS011;8269;50.990;4.494;2023-07-02T14:23:41;15.45;;;8.25;;
16320;SDS011;8269;50.990;4.494;2023-07-02T14:26:07;15.07;;;8.02;;
16320;SDS011;8269;50.990;4.494;2023-07-02T14:28:33;17.15;;;7.80;;
16320;SDS011;8269;50.990;4.494;2023-07-02T14:31:00;19.58;;;8.30;;
16320;SDS011;8269;50.990;4.494;2023-07-02T14:33:27;14.02;;;7.57;;
16320;SDS011;8269;50.990;4.494;2023-07-02T14:35:53;15.98;;;7.90;;
16320;SDS011;8269;50.990;4.494;2023-07-02T14:38:19;16.75;;;8.00;;
16320;SDS011;8269;50.990;4.494;2023-07-02T14:40:46;13.75;;;7.88;;